sensor_id;sensor_type;location;lat;lon;timestamp;P1;durP1;ratioP1;P2;durP2;ratioP2
16693;SDS011;39538;52.196;9.892;2022-09-09T00:01:46;143.43;;;137.93;;
16693;SDS011;39538;52.196;9.892;2022-09-09T00:04:20;132.77;;;127.77;;
16693;SDS011;39538;52.196;9.892;2022-09-09T00:06:55;130.50;;;125.53;;
16693;SDS011;39538;52.196;9.892;2022-09-09T00:09:27;149.93;;;143.87;;
16693;SDS011;39538;52.196;9.892;2022-09-09T00:11:57;129.40;;;124.30;;
16693;SDS011;39538;52.196;9.892;2022-09-09T00:14:32;128.13;;;123.17;;
16693;SDS011;39538;52.196;9.892;2022-09-09T00:17:06;133.80;;;128.83;;
16693;SDS011;39538;52.196;9.892;2022-09-09T00:19:39;147.87;;;142.17;;
16693;SDS011;39538;52.196;9.892;2022-09-09T00:22:15;137.47;;;132.10;;
16693;SDS011;39538;52.196;9.892;2022-09-09T00:24:45;132.03;;;127.23;;
16693;SDS011;39538;52.196;9.892;2022-09-09T00:27:18;134.13;;;129.33;;
16693;SDS011;39538;52.196;9.892;2022-09-09T00:29:52;134.73;;;129.57;;
16693;SDS011;39538;52.196;9.892;2022-09-09T00:32:23;155.27;;;148.73;;
16693;SDS011;39538;52.196;9.892;2022-09-09T00:34:56;150.50;;;144.47;;
16693;SDS011;39538;52.196;9.892;2022-09-09T00:37:27;131.20;;;126.20;;
16693;SDS011;39538;52.196;9.892;2022-09-09T00:39:57;124.17;;;119.50;;
16693;SDS011;39538;52.196;9.892;2022-09-09T00:42:31;132.60;;;127.73;;
16693;SDS011;39538;52.196;9.892;2022-09-09T00:45:09;124.00;;;119.63;;
16693;SDS011;39538;52.196;9.892;2022-09-09T00:47:53;136.30;;;130.57;;
16693;SDS011;39538;52.196;9.892;2022-09-09T00:50:34;131.97;;;126.97;;
16693;SDS011;39538;52.196;9.892;2022-09-09T00:53:09;158.00;;;151.97;;
16693;SDS011;39538;52.196;9.892;2022-09-09T00:55:48;174.77;;;167.87;;
16693;SDS011;39538;52.196;9.892;2022-09-09T00:58:20;169.27;;;162.17;;
16693;SDS011;39538;52.196;9.892;2022-09-09T01:00:48;162.70;;;156.37;;
16693;SDS011;39538;52.196;9.892;2022-09-09T01:03:25;146.37;;;140.53;;
16693;SDS011;39538;52.196;9.892;2022-09-09T01:06:01;144.20;;;139.03;;
16693;SDS011;39538;52.196;9.892;2022-09-09T01:11:30;149.80;;;144.37;;
16693;SDS011;39538;52.196;9.892;2022-09-09T01:14:05;151.33;;;145.33;;
16693;SDS011;39538;52.196;9.892;2022-09-09T01:16:40;175.77;;;168.77;;
16693;SDS011;39538;52.196;9.892;2022-09-09T01:19:09;174.10;;;166.90;;
16693;SDS011;39538;52.196;9.892;2022-09-09T01:21:46;155.47;;;149.77;;
16693;SDS011;39538;52.196;9.892;2022-09-09T01:24:22;156.93;;;151.27;;
16693;SDS011;39538;52.196;9.892;2022-09-09T01:26:57;156.90;;;150.80;;
16693;SDS011;39538;52.196;9.892;2022-09-09T01:29:26;153.53;;;147.70;;
16693;SDS011;39538;52.196;9.892;2022-09-09T01:31:54;154.17;;;148.60;;
16693;SDS011;39538;52.196;9.892;2022-09-09T01:34:22;160.17;;;154.20;;
16693;SDS011;39538;52.196;9.892;2022-09-09T01:36:52;170.10;;;163.37;;
16693;SDS011;39538;52.196;9.892;2022-09-09T01:39:25;175.07;;;168.17;;
16693;SDS011;39538;52.196;9.892;2022-09-09T01:41:52;176.33;;;169.73;;
16693;SDS011;39538;52.196;9.892;2022-09-09T01:44:22;157.20;;;151.23;;
16693;SDS011;39538;52.196;9.892;2022-09-09T01:46:51;161.50;;;155.50;;
16693;SDS011;39538;52.196;9.892;2022-09-09T01:49:17;148.93;;;143.33;;
16693;SDS011;39538;52.196;9.892;2022-09-09T01:51:45;155.37;;;149.37;;
16693;SDS011;39538;52.196;9.892;2022-09-09T01:54:14;148.70;;;143.40;;
16693;SDS011;39538;52.196;9.892;2022-09-09T01:56:43;146.47;;;141.00;;
16693;SDS011;39538;52.196;9.892;2022-09-09T01:59:34;144.90;;;139.57;;
16693;SDS011;39538;52.196;9.892;2022-09-09T02:02:09;135.83;;;130.80;;
16693;SDS011;39538;52.196;9.892;2022-09-09T02:04:39;143.30;;;137.67;;
16693;SDS011;39538;52.196;9.892;2022-09-09T02:07:19;134.63;;;129.60;;
16693;SDS011;39538;52.196;9.892;2022-09-09T02:09:56;141.17;;;135.93;;
16693;SDS011;39538;52.196;9.892;2022-09-09T02:12:27;142.10;;;136.43;;
16693;SDS011;39538;52.196;9.892;2022-09-09T02:14:59;152.67;;;146.57;;
16693;SDS011;39538;52.196;9.892;2022-09-09T02:17:30;173.53;;;167.00;;
16693;SDS011;39538;52.196;9.892;2022-09-09T02:20:03;172.13;;;165.63;;
16693;SDS011;39538;52.196;9.892;2022-09-09T02:22:33;174.50;;;167.53;;
16693;SDS011;39538;52.196;9.892;2022-09-09T02:25:06;168.03;;;161.17;;
16693;SDS011;39538;52.196;9.892;2022-09-09T02:27:35;155.17;;;149.33;;
16693;SDS011;39538;52.196;9.892;2022-09-09T02:30:04;168.57;;;161.87;;
16693;SDS011;39538;52.196;9.892;2022-09-09T02:32:32;177.07;;;170.10;;
16693;SDS011;39538;52.196;9.892;2022-09-09T02:35:02;175.90;;;168.70;;
16693;SDS011;39538;52.196;9.892;2022-09-09T02:37:33;178.53;;;171.23;;
16693;SDS011;39538;52.196;9.892;2022-09-09T02:40:02;185.73;;;178.37;;
16693;SDS011;39538;52.196;9.892;2022-09-09T02:42:30;172.30;;;165.33;;
16693;SDS011;39538;52.196;9.892;2022-09-09T02:44:57;181.40;;;174.03;;
16693;SDS011;39538;52.196;9.892;2022-09-09T02:47:31;158.07;;;151.43;;
16693;SDS011;39538;52.196;9.892;2022-09-09T02:50:06;170.43;;;163.43;;
16693;SDS011;39538;52.196;9.892;2022-09-09T02:52:40;171.70;;;164.93;;
16693;SDS011;39538;52.196;9.892;2022-09-09T02:55:17;174.30;;;167.20;;
16693;SDS011;39538;52.196;9.892;2022-09-09T02:57:50;178.90;;;171.57;;
16693;SDS011;39538;52.196;9.892;2022-09-09T03:00:22;168.77;;;161.80;;
16693;SDS011;39538;52.196;9.892;2022-09-09T03:02:51;167.47;;;160.73;;
16693;SDS011;39538;52.196;9.892;2022-09-09T03:05:19;162.63;;;155.77;;
16693;SDS011;39538;52.196;9.892;2022-09-09T03:07:46;180.93;;;173.27;;
16693;SDS011;39538;52.196;9.892;2022-09-09T03:10:14;163.83;;;156.77;;
16693;SDS011;39538;52.196;9.892;2022-09-09T03:12:41;172.37;;;165.37;;
16693;SDS011;39538;52.196;9.892;2022-09-09T03:15:08;166.17;;;159.30;;
16693;SDS011;39538;52.196;9.892;2022-09-09T03:17:35;175.50;;;168.33;;
16693;SDS011;39538;52.196;9.892;2022-09-09T03:20:04;173.37;;;166.67;;
16693;SDS011;39538;52.196;9.892;2022-09-09T03:22:31;170.47;;;163.57;;
16693;SDS011;39538;52.196;9.892;2022-09-09T03:24:58;180.47;;;172.93;;
16693;SDS011;39538;52.196;9.892;2022-09-09T03:27:24;187.53;;;179.27;;
16693;SDS011;39538;52.196;9.892;2022-09-09T03:29:51;164.73;;;157.83;;
16693;SDS011;39538;52.196;9.892;2022-09-09T03:32:17;175.23;;;167.70;;
16693;SDS011;39538;52.196;9.892;2022-09-09T03:34:47;151.87;;;145.30;;
16693;SDS011;39538;52.196;9.892;2022-09-09T03:37:16;162.57;;;155.43;;
16693;SDS011;39538;52.196;9.892;2022-09-09T03:39:42;159.17;;;152.27;;
16693;SDS011;39538;52.196;9.892;2022-09-09T03:42:11;158.47;;;151.67;;
16693;SDS011;39538;52.196;9.892;2022-09-09T03:44:39;154.97;;;148.47;;
16693;SDS011;39538;52.196;9.892;2022-09-09T03:47:06;149.13;;;142.90;;
16693;SDS011;39538;52.196;9.892;2022-09-09T03:49:32;144.10;;;137.60;;
16693;SDS011;39538;52.196;9.892;2022-09-09T03:51:58;135.10;;;129.43;;
16693;SDS011;39538;52.196;9.892;2022-09-09T03:54:27;131.43;;;125.90;;
16693;SDS011;39538;52.196;9.892;2022-09-09T03:56:53;133.47;;;128.27;;
16693;SDS011;39538;52.196;9.892;2022-09-09T03:59:20;140.53;;;134.67;;
16693;SDS011;39538;52.196;9.892;2022-09-09T04:01:48;141.70;;;135.83;;
16693;SDS011;39538;52.196;9.892;2022-09-09T04:04:14;132.63;;;127.10;;
16693;SDS011;39538;52.196;9.892;2022-09-09T04:06:40;146.17;;;140.40;;
16693;SDS011;39538;52.196;9.892;2022-09-09T04:09:07;140.90;;;135.67;;
16693;SDS011;39538;52.196;9.892;2022-09-09T04:11:35;138.37;;;132.97;;
16693;SDS011;39538;52.196;9.892;2022-09-09T04:14:02;133.00;;;127.83;;
16693;SDS011;39538;52.196;9.892;2022-09-09T04:16:29;137.57;;;132.23;;
16693;SDS011;39538;52.196;9.892;2022-09-09T04:18:55;131.87;;;126.40;;
16693;SDS011;39538;52.196;9.892;2022-09-09T04:21:23;135.20;;;129.80;;
16693;SDS011;39538;52.196;9.892;2022-09-09T04:23:49;137.57;;;132.27;;
16693;SDS011;39538;52.196;9.892;2022-09-09T04:26:16;130.60;;;125.00;;
16693;SDS011;39538;52.196;9.892;2022-09-09T04:28:44;170.10;;;163.57;;
16693;SDS011;39538;52.196;9.892;2022-09-09T04:31:12;162.50;;;156.23;;
16693;SDS011;39538;52.196;9.892;2022-09-09T04:33:42;142.60;;;137.07;;
16693;SDS011;39538;52.196;9.892;2022-09-09T04:36:08;160.00;;;153.30;;
16693;SDS011;39538;52.196;9.892;2022-09-09T04:38:35;175.30;;;168.33;;
16693;SDS011;39538;52.196;9.892;2022-09-09T04:41:02;180.10;;;173.17;;
16693;SDS011;39538;52.196;9.892;2022-09-09T04:43:28;177.13;;;170.37;;
16693;SDS011;39538;52.196;9.892;2022-09-09T04:45:57;179.13;;;172.33;;
16693;SDS011;39538;52.196;9.892;2022-09-09T04:48:24;179.23;;;172.37;;
16693;SDS011;39538;52.196;9.892;2022-09-09T04:50:54;180.90;;;173.63;;
16693;SDS011;39538;52.196;9.892;2022-09-09T04:53:22;177.53;;;170.50;;
16693;SDS011;39538;52.196;9.892;2022-09-09T04:55:48;182.60;;;174.93;;
16693;SDS011;39538;52.196;9.892;2022-09-09T04:58:15;175.97;;;169.07;;
16693;SDS011;39538;52.196;9.892;2022-09-09T05:00:42;192.40;;;184.07;;
16693;SDS011;39538;52.196;9.892;2022-09-09T05:03:10;193.07;;;185.07;;
16693;SDS011;39538;52.196;9.892;2022-09-09T05:05:37;178.67;;;171.83;;
16693;SDS011;39538;52.196;9.892;2022-09-09T05:08:04;160.90;;;154.80;;
16693;SDS011;39538;52.196;9.892;2022-09-09T05:10:32;180.27;;;173.17;;
16693;SDS011;39538;52.196;9.892;2022-09-09T05:12:59;152.80;;;146.60;;
16693;SDS011;39538;52.196;9.892;2022-09-09T05:15:25;149.83;;;143.67;;
16693;SDS011;39538;52.196;9.892;2022-09-09T05:17:52;151.97;;;145.70;;
16693;SDS011;39538;52.196;9.892;2022-09-09T05:20:19;154.70;;;148.53;;
16693;SDS011;39538;52.196;9.892;2022-09-09T05:22:46;156.13;;;149.47;;
16693;SDS011;39538;52.196;9.892;2022-09-09T05:25:12;151.87;;;145.80;;
16693;SDS011;39538;52.196;9.892;2022-09-09T05:27:39;139.63;;;134.07;;
16693;SDS011;39538;52.196;9.892;2022-09-09T05:30:06;138.13;;;132.57;;
16693;SDS011;39538;52.196;9.892;2022-09-09T05:32:33;150.73;;;144.37;;
16693;SDS011;39538;52.196;9.892;2022-09-09T05:34:59;170.23;;;163.57;;
16693;SDS011;39538;52.196;9.892;2022-09-09T05:37:27;143.40;;;138.03;;
16693;SDS011;39538;52.196;9.892;2022-09-09T05:39:55;151.73;;;145.63;;
16693;SDS011;39538;52.196;9.892;2022-09-09T05:42:21;154.30;;;148.20;;
16693;SDS011;39538;52.196;9.892;2022-09-09T05:44:48;167.37;;;160.83;;
16693;SDS011;39538;52.196;9.892;2022-09-09T05:47:15;161.33;;;154.77;;
16693;SDS011;39538;52.196;9.892;2022-09-09T05:49:42;163.70;;;156.33;;
16693;SDS011;39538;52.196;9.892;2022-09-09T05:52:09;182.63;;;174.97;;
16693;SDS011;39538;52.196;9.892;2022-09-09T05:54:37;196.87;;;188.77;;
16693;SDS011;39538;52.196;9.892;2022-09-09T05:57:04;206.33;;;198.20;;
16693;SDS011;39538;52.196;9.892;2022-09-09T05:59:30;186.07;;;178.33;;
16693;SDS011;39538;52.196;9.892;2022-09-09T06:01:57;214.63;;;205.90;;
16693;SDS011;39538;52.196;9.892;2022-09-09T06:04:24;192.20;;;184.37;;
16693;SDS011;39538;52.196;9.892;2022-09-09T06:06:50;180.83;;;173.63;;
16693;SDS011;39538;52.196;9.892;2022-09-09T06:09:17;207.23;;;198.60;;
16693;SDS011;39538;52.196;9.892;2022-09-09T06:11:45;223.40;;;213.37;;
16693;SDS011;39538;52.196;9.892;2022-09-09T06:14:11;224.80;;;215.60;;
16693;SDS011;39538;52.196;9.892;2022-09-09T06:16:38;217.67;;;208.43;;
16693;SDS011;39538;52.196;9.892;2022-09-09T06:19:07;221.90;;;212.87;;
16693;SDS011;39538;52.196;9.892;2022-09-09T06:21:34;219.83;;;210.47;;
16693;SDS011;39538;52.196;9.892;2022-09-09T06:24:02;207.83;;;198.13;;
16693;SDS011;39538;52.196;9.892;2022-09-09T06:26:29;204.07;;;195.40;;
16693;SDS011;39538;52.196;9.892;2022-09-09T06:28:59;222.57;;;213.13;;
16693;SDS011;39538;52.196;9.892;2022-09-09T06:31:28;223.93;;;214.33;;
16693;SDS011;39538;52.196;9.892;2022-09-09T06:33:56;202.50;;;193.60;;
16693;SDS011;39538;52.196;9.892;2022-09-09T06:36:25;133.23;;;127.70;;
16693;SDS011;39538;52.196;9.892;2022-09-09T06:38:52;127.57;;;122.13;;
16693;SDS011;39538;52.196;9.892;2022-09-09T06:41:20;130.73;;;125.00;;
16693;SDS011;39538;52.196;9.892;2022-09-09T06:43:48;148.13;;;141.57;;
16693;SDS011;39538;52.196;9.892;2022-09-09T06:46:17;153.63;;;146.87;;
16693;SDS011;39538;52.196;9.892;2022-09-09T06:48:45;149.83;;;143.27;;
16693;SDS011;39538;52.196;9.892;2022-09-09T06:51:13;187.43;;;179.47;;
16693;SDS011;39538;52.196;9.892;2022-09-09T06:53:42;194.53;;;185.93;;
16693;SDS011;39538;52.196;9.892;2022-09-09T06:56:19;177.03;;;169.67;;
16693;SDS011;39538;52.196;9.892;2022-09-09T06:58:48;205.70;;;196.50;;
16693;SDS011;39538;52.196;9.892;2022-09-09T07:01:18;176.80;;;169.37;;
16693;SDS011;39538;52.196;9.892;2022-09-09T07:03:46;165.40;;;158.30;;
16693;SDS011;39538;52.196;9.892;2022-09-09T07:06:15;166.70;;;159.57;;
16693;SDS011;39538;52.196;9.892;2022-09-09T07:08:43;201.60;;;192.87;;
16693;SDS011;39538;52.196;9.892;2022-09-09T07:11:10;221.03;;;211.60;;
16693;SDS011;39538;52.196;9.892;2022-09-09T07:13:37;224.27;;;214.57;;
16693;SDS011;39538;52.196;9.892;2022-09-09T07:16:03;240.37;;;229.87;;
16693;SDS011;39538;52.196;9.892;2022-09-09T07:18:32;223.97;;;214.30;;
16693;SDS011;39538;52.196;9.892;2022-09-09T07:20:59;250.60;;;239.20;;
16693;SDS011;39538;52.196;9.892;2022-09-09T07:23:27;255.87;;;244.07;;
16693;SDS011;39538;52.196;9.892;2022-09-09T07:25:54;246.67;;;235.77;;
16693;SDS011;39538;52.196;9.892;2022-09-09T07:28:20;239.93;;;228.60;;
16693;SDS011;39538;52.196;9.892;2022-09-09T07:30:52;285.93;;;272.43;;
16693;SDS011;39538;52.196;9.892;2022-09-09T07:33:20;263.27;;;250.53;;
16693;SDS011;39538;52.196;9.892;2022-09-09T07:35:47;266.80;;;255.90;;
16693;SDS011;39538;52.196;9.892;2022-09-09T07:38:14;210.07;;;199.57;;
16693;SDS011;39538;52.196;9.892;2022-09-09T07:40:41;240.33;;;230.30;;
16693;SDS011;39538;52.196;9.892;2022-09-09T07:43:08;226.37;;;215.20;;
16693;SDS011;39538;52.196;9.892;2022-09-09T07:45:35;234.60;;;224.00;;
16693;SDS011;39538;52.196;9.892;2022-09-09T07:48:02;269.80;;;257.07;;
16693;SDS011;39538;52.196;9.892;2022-09-09T07:50:29;258.53;;;245.73;;
16693;SDS011;39538;52.196;9.892;2022-09-09T07:52:57;196.80;;;188.30;;
16693;SDS011;39538;52.196;9.892;2022-09-09T07:55:24;228.53;;;218.40;;
16693;SDS011;39538;52.196;9.892;2022-09-09T07:57:51;234.00;;;223.50;;
16693;SDS011;39538;52.196;9.892;2022-09-09T08:00:18;230.93;;;220.93;;
16693;SDS011;39538;52.196;9.892;2022-09-09T08:02:47;207.37;;;198.17;;
16693;SDS011;39538;52.196;9.892;2022-09-09T08:05:13;230.93;;;220.63;;
16693;SDS011;39538;52.196;9.892;2022-09-09T08:07:41;218.27;;;208.43;;
16693;SDS011;39538;52.196;9.892;2022-09-09T08:10:10;267.70;;;255.37;;
16693;SDS011;39538;52.196;9.892;2022-09-09T08:12:39;247.77;;;236.17;;
16693;SDS011;39538;52.196;9.892;2022-09-09T08:15:06;301.67;;;287.57;;
16693;SDS011;39538;52.196;9.892;2022-09-09T08:17:33;299.90;;;284.60;;
16693;SDS011;39538;52.196;9.892;2022-09-09T08:19:59;242.40;;;230.77;;
16693;SDS011;39538;52.196;9.892;2022-09-09T08:22:29;318.30;;;303.13;;
16693;SDS011;39538;52.196;9.892;2022-09-09T08:24:56;309.00;;;294.83;;
16693;SDS011;39538;52.196;9.892;2022-09-09T08:27:24;234.73;;;223.80;;
16693;SDS011;39538;52.196;9.892;2022-09-09T08:29:50;225.63;;;215.03;;
16693;SDS011;39538;52.196;9.892;2022-09-09T08:32:18;301.27;;;287.03;;
16693;SDS011;39538;52.196;9.892;2022-09-09T08:34:44;273.33;;;260.97;;
16693;SDS011;39538;52.196;9.892;2022-09-09T08:37:11;284.00;;;271.20;;
16693;SDS011;39538;52.196;9.892;2022-09-09T08:39:38;277.03;;;264.77;;
16693;SDS011;39538;52.196;9.892;2022-09-09T08:42:08;273.17;;;260.53;;
16693;SDS011;39538;52.196;9.892;2022-09-09T08:44:56;265.73;;;253.77;;
16693;SDS011;39538;52.196;9.892;2022-09-09T08:47:39;268.77;;;256.07;;
16693;SDS011;39538;52.196;9.892;2022-09-09T08:50:16;274.57;;;262.57;;
16693;SDS011;39538;52.196;9.892;2022-09-09T08:52:51;253.50;;;242.87;;
16693;SDS011;39538;52.196;9.892;2022-09-09T08:55:24;229.43;;;219.75;;
16693;SDS011;39538;52.196;9.892;2022-09-09T08:57:55;251.85;;;240.23;;
16693;SDS011;39538;52.196;9.892;2022-09-09T09:00:28;242.45;;;231.93;;
16693;SDS011;39538;52.196;9.892;2022-09-09T09:03:04;228.73;;;219.20;;
16693;SDS011;39538;52.196;9.892;2022-09-09T09:05:36;248.25;;;238.02;;
16693;SDS011;39538;52.196;9.892;2022-09-09T09:08:12;260.25;;;248.85;;
16693;SDS011;39538;52.196;9.892;2022-09-09T09:10:49;250.52;;;239.65;;
16693;SDS011;39538;52.196;9.892;2022-09-09T09:13:17;265.33;;;254.18;;
16693;SDS011;39538;52.196;9.892;2022-09-09T09:15:48;242.35;;;231.98;;
16693;SDS011;39538;52.196;9.892;2022-09-09T09:18:19;229.13;;;219.77;;
16693;SDS011;39538;52.196;9.892;2022-09-09T09:20:49;240.15;;;229.95;;
16693;SDS011;39538;52.196;9.892;2022-09-09T09:23:21;232.15;;;222.30;;
16693;SDS011;39538;52.196;9.892;2022-09-09T09:25:50;247.98;;;237.43;;
16693;SDS011;39538;52.196;9.892;2022-09-09T09:28:23;215.30;;;206.35;;
16693;SDS011;39538;52.196;9.892;2022-09-09T09:30:53;205.38;;;196.23;;
16693;SDS011;39538;52.196;9.892;2022-09-09T09:33:25;222.38;;;212.88;;
16693;SDS011;39538;52.196;9.892;2022-09-09T09:35:54;221.02;;;211.75;;
16693;SDS011;39538;52.196;9.892;2022-09-09T09:38:21;216.30;;;207.25;;
16693;SDS011;39538;52.196;9.892;2022-09-09T09:40:50;197.80;;;189.55;;
16693;SDS011;39538;52.196;9.892;2022-09-09T09:43:20;214.95;;;205.63;;
16693;SDS011;39538;52.196;9.892;2022-09-09T09:45:49;236.43;;;226.25;;
16693;SDS011;39538;52.196;9.892;2022-09-09T09:48:17;255.27;;;244.05;;
16693;SDS011;39538;52.196;9.892;2022-09-09T09:50:47;233.05;;;223.48;;
16693;SDS011;39538;52.196;9.892;2022-09-09T09:53:18;251.38;;;240.88;;
16693;SDS011;39538;52.196;9.892;2022-09-09T09:55:50;234.07;;;224.18;;
16693;SDS011;39538;52.196;9.892;2022-09-09T09:58:23;218.35;;;209.13;;
16693;SDS011;39538;52.196;9.892;2022-09-09T10:00:52;207.90;;;199.02;;
16693;SDS011;39538;52.196;9.892;2022-09-09T10:03:22;234.80;;;224.82;;
16693;SDS011;39538;52.196;9.892;2022-09-09T10:05:51;251.68;;;241.00;;
16693;SDS011;39538;52.196;9.892;2022-09-09T10:08:18;240.13;;;230.07;;
16693;SDS011;39538;52.196;9.892;2022-09-09T10:10:48;248.13;;;237.70;;
16693;SDS011;39538;52.196;9.892;2022-09-09T10:13:25;246.48;;;235.70;;
16693;SDS011;39538;52.196;9.892;2022-09-09T10:16:04;268.15;;;256.35;;
16693;SDS011;39538;52.196;9.892;2022-09-09T10:18:45;257.88;;;246.70;;
16693;SDS011;39538;52.196;9.892;2022-09-09T10:21:24;227.43;;;218.05;;
16693;SDS011;39538;52.196;9.892;2022-09-09T10:24:05;249.35;;;238.20;;
16693;SDS011;39538;52.196;9.892;2022-09-09T10:26:49;224.65;;;214.95;;
16693;SDS011;39538;52.196;9.892;2022-09-09T10:32:22;241.07;;;229.98;;
16693;SDS011;39538;52.196;9.892;2022-09-09T10:35:04;225.57;;;216.48;;
16693;SDS011;39538;52.196;9.892;2022-09-09T10:37:41;245.82;;;235.63;;
16693;SDS011;39538;52.196;9.892;2022-09-09T10:40:27;238.80;;;228.57;;
16693;SDS011;39538;52.196;9.892;2022-09-09T10:43:00;220.48;;;211.43;;
16693;SDS011;39538;52.196;9.892;2022-09-09T10:45:37;216.25;;;207.07;;
16693;SDS011;39538;52.196;9.892;2022-09-09T10:48:24;219.75;;;210.48;;
16693;SDS011;39538;52.196;9.892;2022-09-09T10:51:15;211.50;;;202.27;;
16693;SDS011;39538;52.196;9.892;2022-09-09T10:53:53;188.70;;;180.70;;
16693;SDS011;39538;52.196;9.892;2022-09-09T10:56:32;189.27;;;181.60;;
16693;SDS011;39538;52.196;9.892;2022-09-09T10:59:00;174.07;;;166.98;;
16693;SDS011;39538;52.196;9.892;2022-09-09T11:01:31;168.23;;;161.27;;
16693;SDS011;39538;52.196;9.892;2022-09-09T11:04:10;159.93;;;153.30;;
16693;SDS011;39538;52.196;9.892;2022-09-09T11:06:44;202.48;;;193.85;;
16693;SDS011;39538;52.196;9.892;2022-09-09T11:09:17;219.87;;;209.97;;
16693;SDS011;39538;52.196;9.892;2022-09-09T11:11:49;232.93;;;222.77;;
16693;SDS011;39538;52.196;9.892;2022-09-09T11:14:19;230.77;;;220.73;;
16693;SDS011;39538;52.196;9.892;2022-09-09T11:16:53;203.00;;;194.73;;
16693;SDS011;39538;52.196;9.892;2022-09-09T11:19:24;192.67;;;184.63;;
16693;SDS011;39538;52.196;9.892;2022-09-09T11:21:58;209.10;;;200.07;;
16693;SDS011;39538;52.196;9.892;2022-09-09T11:24:26;212.63;;;203.43;;
16693;SDS011;39538;52.196;9.892;2022-09-09T11:26:57;268.67;;;256.37;;
16693;SDS011;39538;52.196;9.892;2022-09-09T11:29:35;258.37;;;246.60;;
16693;SDS011;39538;52.196;9.892;2022-09-09T11:32:17;250.73;;;239.33;;
16693;SDS011;39538;52.196;9.892;2022-09-09T11:34:53;255.00;;;243.23;;
16693;SDS011;39538;52.196;9.892;2022-09-09T11:37:37;233.70;;;222.53;;
16693;SDS011;39538;52.196;9.892;2022-09-09T11:40:16;235.53;;;224.63;;
16693;SDS011;39538;52.196;9.892;2022-09-09T11:42:46;283.87;;;271.00;;
16693;SDS011;39538;52.196;9.892;2022-09-09T11:45:21;353.70;;;337.73;;
16693;SDS011;39538;52.196;9.892;2022-09-09T11:47:54;369.10;;;352.87;;
16693;SDS011;39538;52.196;9.892;2022-09-09T11:50:29;346.33;;;330.93;;
16693;SDS011;39538;52.196;9.892;2022-09-09T11:53:14;363.20;;;347.07;;
16693;SDS011;39538;52.196;9.892;2022-09-09T11:55:47;379.50;;;362.27;;
16693;SDS011;39538;52.196;9.892;2022-09-09T11:58:25;377.17;;;359.43;;
16693;SDS011;39538;52.196;9.892;2022-09-09T12:00:52;373.07;;;355.67;;
16693;SDS011;39538;52.196;9.892;2022-09-09T12:03:35;378.07;;;359.97;;
16693;SDS011;39538;52.196;9.892;2022-09-09T12:06:11;367.17;;;350.57;;
16693;SDS011;39538;52.196;9.892;2022-09-09T12:08:43;372.57;;;355.00;;
16693;SDS011;39538;52.196;9.892;2022-09-09T12:11:12;367.90;;;350.47;;
16693;SDS011;39538;52.196;9.892;2022-09-09T12:13:54;349.90;;;333.57;;
16693;SDS011;39538;52.196;9.892;2022-09-09T12:16:29;363.80;;;346.47;;
16693;SDS011;39538;52.196;9.892;2022-09-09T12:19:12;370.57;;;353.77;;
16693;SDS011;39538;52.196;9.892;2022-09-09T12:21:44;331.50;;;316.20;;
16693;SDS011;39538;52.196;9.892;2022-09-09T12:24:19;345.50;;;329.57;;
16693;SDS011;39538;52.196;9.892;2022-09-09T12:26:54;335.57;;;319.70;;
16693;SDS011;39538;52.196;9.892;2022-09-09T12:29:27;330.67;;;315.53;;
16693;SDS011;39538;52.196;9.892;2022-09-09T12:32:00;357.63;;;340.73;;
16693;SDS011;39538;52.196;9.892;2022-09-09T12:34:35;349.87;;;333.67;;
16693;SDS011;39538;52.196;9.892;2022-09-09T12:37:06;339.97;;;324.43;;
16693;SDS011;39538;52.196;9.892;2022-09-09T12:39:42;344.07;;;327.60;;
16693;SDS011;39538;52.196;9.892;2022-09-09T12:42:17;356.77;;;339.80;;
16693;SDS011;39538;52.196;9.892;2022-09-09T12:44:50;368.47;;;351.20;;
16693;SDS011;39538;52.196;9.892;2022-09-09T12:47:18;361.50;;;344.63;;
16693;SDS011;39538;52.196;9.892;2022-09-09T12:49:47;346.60;;;330.70;;
16693;SDS011;39538;52.196;9.892;2022-09-09T12:52:17;352.93;;;336.60;;
16693;SDS011;39538;52.196;9.892;2022-09-09T12:54:51;343.83;;;327.30;;
16693;SDS011;39538;52.196;9.892;2022-09-09T12:57:18;346.57;;;330.67;;
16693;SDS011;39538;52.196;9.892;2022-09-09T12:59:47;318.70;;;303.73;;
16693;SDS011;39538;52.196;9.892;2022-09-09T13:02:18;310.60;;;296.07;;
16693;SDS011;39538;52.196;9.892;2022-09-09T13:04:46;377.57;;;359.90;;
16693;SDS011;39538;52.196;9.892;2022-09-09T13:07:15;365.37;;;348.67;;
16693;SDS011;39538;52.196;9.892;2022-09-09T13:09:42;348.97;;;332.57;;
16693;SDS011;39538;52.196;9.892;2022-09-09T13:12:13;342.70;;;327.47;;
16693;SDS011;39538;52.196;9.892;2022-09-09T13:14:42;352.13;;;336.47;;
16693;SDS011;39538;52.196;9.892;2022-09-09T13:17:15;352.47;;;336.83;;
16693;SDS011;39538;52.196;9.892;2022-09-09T13:19:45;306.93;;;292.47;;
16693;SDS011;39538;52.196;9.892;2022-09-09T13:22:12;346.53;;;330.93;;
16693;SDS011;39538;52.196;9.892;2022-09-09T13:24:40;336.53;;;321.43;;
16693;SDS011;39538;52.196;9.892;2022-09-09T13:27:22;320.13;;;305.83;;
16693;SDS011;39538;52.196;9.892;2022-09-09T13:29:57;319.77;;;305.47;;
16693;SDS011;39538;52.196;9.892;2022-09-09T13:32:24;355.67;;;339.37;;
16693;SDS011;39538;52.196;9.892;2022-09-09T13:34:53;313.43;;;299.10;;
16693;SDS011;39538;52.196;9.892;2022-09-09T13:37:22;309.70;;;295.47;;
16693;SDS011;39538;52.196;9.892;2022-09-09T13:39:52;350.07;;;333.80;;
16693;SDS011;39538;52.196;9.892;2022-09-09T13:42:25;352.57;;;336.30;;
16693;SDS011;39538;52.196;9.892;2022-09-09T13:44:53;349.93;;;334.10;;
16693;SDS011;39538;52.196;9.892;2022-09-09T13:47:26;366.80;;;350.10;;
16693;SDS011;39538;52.196;9.892;2022-09-09T13:49:55;338.90;;;323.97;;
16693;SDS011;39538;52.196;9.892;2022-09-09T13:52:21;331.47;;;316.00;;
16693;SDS011;39538;52.196;9.892;2022-09-09T13:54:48;324.17;;;309.10;;
16693;SDS011;39538;52.196;9.892;2022-09-09T13:57:17;348.07;;;332.43;;
16693;SDS011;39538;52.196;9.892;2022-09-09T13:59:46;323.50;;;307.87;;
16693;SDS011;39538;52.196;9.892;2022-09-09T14:05:29;308.10;;;294.20;;
16693;SDS011;39538;52.196;9.892;2022-09-09T14:07:58;337.73;;;322.20;;
16693;SDS011;39538;52.196;9.892;2022-09-09T14:10:25;356.43;;;339.87;;
16693;SDS011;39538;52.196;9.892;2022-09-09T14:12:52;354.27;;;338.23;;
16693;SDS011;39538;52.196;9.892;2022-09-09T14:15:20;348.67;;;333.03;;
16693;SDS011;39538;52.196;9.892;2022-09-09T14:17:46;353.40;;;337.43;;
16693;SDS011;39538;52.196;9.892;2022-09-09T14:20:13;359.20;;;343.03;;
16693;SDS011;39538;52.196;9.892;2022-09-09T14:22:44;320.93;;;305.97;;
16693;SDS011;39538;52.196;9.892;2022-09-09T14:25:10;330.07;;;314.67;;